Time;durP1;ratioP1;P1;durP2;ratioP2;P2;SDS_P1;SDS_P2;PMS_P1;PMS_P2;Temp;Humidity;BMP_temperature;BMP_pressure;BME280_temperature;BME280_humidity;BME280_pressure;Samples;Min_cycle;Max_cycle;Signal;HPM_P1;HPM_P2
2023/10/26 00:00:38;;;;;;;0.90;0.90;;;;;;;-2.98;61.07;99399.97;4824822;29;20339;-84
2023/10/26 00:03:05;;;;;;;1.10;1.10;;;;;;;-3.00;60.85;99399.28;4824925;29;20062;-82
2023/10/26 00:05:32;;;;;;;1.10;1.10;;;;;;;-3.08;60.22;99403.47;4824266;29;20162;-83
2023/10/26 00:08:00;;;;;;;0.90;0.90;;;;;;;-3.09;60.40;99408.91;4824306;29;20529;-82
2023/10/26 00:10:27;;;;;;;1.23;1.15;;;;;;;-3.08;60.12;99402.66;4825028;29;20367;-83
2023/10/26 00:12:54;;;;;;;0.85;0.85;;;;;;;-3.13;60.16;99399.63;4823630;29;20522;-83
2023/10/26 00:15:21;;;;;;;0.95;0.95;;;;;;;-3.14;60.43;99397.94;4824797;29;20066;-83
2023/10/26 00:17:48;;;;;;;1.00;1.00;;;;;;;-3.15;60.22;99399.75;4824485;29;20050;-83
2023/10/26 00:20:16;;;;;;;1.00;1.00;;;;;;;-3.17;60.39;99390.31;4824711;29;20078;-82
2023/10/26 00:22:43;;;;;;;0.80;0.80;;;;;;;-3.15;60.72;99397.13;4824270;29;20065;-83
2023/10/26 00:25:10;;;;;;;0.82;0.82;;;;;;;-3.12;60.57;99396.81;4824494;29;20422;-84
2023/10/26 00:27:40;;;;;;;0.98;0.98;;;;;;;-3.09;60.75;99399.19;4808496;29;20487;-84
2023/10/26 00:30:13;;;;;;;1.10;1.10;;;;;;;-3.12;60.54;99394.19;4793326;29;20504;-84
2023/10/26 00:32:41;;;;;;;0.90;0.90;;;;;;;-3.12;60.75;99396.00;4808222;29;20077;-83
2023/10/26 00:35:09;;;;;;;0.80;0.80;;;;;;;-3.11;60.84;99393.22;4808107;29;20050;-83
2023/10/26 00:37:36;;;;;;;0.80;0.80;;;;;;;-3.15;60.50;99381.28;4824273;29;20051;-84
2023/10/26 00:40:03;;;;;;;0.80;0.80;;;;;;;-3.19;60.64;99385.22;4824271;29;20057;-83
2023/10/26 00:42:31;;;;;;;0.88;0.88;;;;;;;-3.18;60.84;99384.22;4824364;29;20090;-82
2023/10/26 00:44:58;;;;;;;0.82;0.82;;;;;;;-3.17;60.92;99377.94;4808014;29;20071;-82
2023/10/26 00:47:25;;;;;;;0.88;0.88;;;;;;;-3.19;61.01;99385.22;4824601;29;20058;-84
2023/10/26 00:49:54;;;;;;;0.90;0.90;;;;;;;-3.14;61.04;99385.59;4824375;29;20081;-83
2023/10/26 00:52:21;;;;;;;0.90;0.90;;;;;;;-3.16;61.10;99379.63;4808493;29;20060;-84
2023/10/26 00:54:49;;;;;;;0.90;0.90;;;;;;;-3.17;61.17;99377.94;4807945;29;20050;-83
2023/10/26 00:57:18;;;;;;;0.73;0.73;;;;;;;-3.15;61.01;99377.81;4824126;29;20498;-83
2023/10/26 00:59:46;;;;;;;0.80;0.80;;;;;;;-3.19;60.96;99376.44;4792650;29;20066;-83
2023/10/26 01:02:15;;;;;;;0.95;0.95;;;;;;;-3.19;61.12;99364.09;4793044;29;20055;-83
2023/10/26 01:04:42;;;;;;;0.68;0.68;;;;;;;-3.11;61.00;99377.38;4823556;29;20055;-83
2023/10/26 01:07:10;;;;;;;0.80;0.80;;;;;;;-3.10;60.80;99376.38;4824182;29;20621;-84
2023/10/26 01:09:37;;;;;;;0.90;0.90;;;;;;;-3.10;60.99;99375.56;4792711;29;20103;-84
2023/10/26 01:12:05;;;;;;;1.00;1.00;;;;;;;-3.17;60.67;99375.31;4807484;29;20050;-83
2023/10/26 01:14:32;;;;;;;0.85;0.85;;;;;;;-3.17;60.60;99385.88;4822817;29;20058;-83
2023/10/26 01:17:00;;;;;;;0.95;0.95;;;;;;;-3.19;60.19;99374.66;4807358;29;20530;-84
2023/10/26 01:19:41;;;;;;;1.00;1.00;;;;;;;-3.23;60.39;99375.09;4823699;29;20058;-85
2023/10/26 01:22:10;;;;;;;0.88;0.88;;;;;;;-3.36;60.00;99360.41;4824181;29;20086;-84
2023/10/26 01:24:37;;;;;;;0.80;0.80;;;;;;;-3.38;60.22;99364.19;4823717;29;20058;-85
2023/10/26 01:27:07;;;;;;;0.95;0.95;;;;;;;-3.37;60.56;99364.00;4807202;29;20054;-84
2023/10/26 01:29:34;;;;;;;0.75;0.75;;;;;;;-3.40;60.36;99361.69;4807319;29;20460;-85
2023/10/26 01:32:01;;;;;;;0.93;0.93;;;;;;;-3.43;60.71;99354.06;4823289;29;20061;-85
2023/10/26 01:34:30;;;;;;;0.90;0.90;;;;;;;-3.42;60.42;99363.63;4823580;29;20050;-83
2023/10/26 01:36:58;;;;;;;1.00;1.00;;;;;;;-3.42;60.38;99355.72;4823194;29;20093;-83
2023/10/26 01:39:26;;;;;;;0.80;0.80;;;;;;;-3.39;60.24;99354.59;4823687;29;20107;-84
2023/10/26 01:41:53;;;;;;;0.90;0.90;;;;;;;-3.39;60.03;99350.16;4823103;29;20076;-84
2023/10/26 01:44:22;;;;;;;0.75;0.75;;;;;;;-3.41;60.16;99349.47;4823612;29;20110;-84
2023/10/26 01:46:49;;;;;;;0.82;0.82;;;;;;;-3.45;60.02;99361.28;4834284;29;20110;-83
2023/10/26 01:49:17;;;;;;;0.90;0.90;;;;;;;-3.42;60.11;99354.88;4843650;29;20087;-84
2023/10/26 01:51:44;;;;;;;0.95;0.95;;;;;;;-3.44;60.32;99354.19;4842149;29;20085;-84
2023/10/26 01:54:11;;;;;;;1.02;1.02;;;;;;;-3.48;60.20;99348.38;4841674;29;20403;-83
2023/10/26 01:56:38;;;;;;;0.85;0.85;;;;;;;-3.44;60.55;99347.13;4825603;29;20050;-84
2023/10/26 01:59:05;;;;;;;1.00;1.00;;;;;;;-3.43;60.42;99351.41;4810264;29;20053;-84
2023/10/26 02:01:33;;;;;;;1.10;1.10;;;;;;;-3.40;60.50;99360.84;4825107;29;20064;-83
2023/10/26 02:04:00;;;;;;;1.10;1.10;;;;;;;-3.42;60.86;99354.88;4824810;29;20049;-84
2023/10/26 02:06:27;;;;;;;0.90;0.90;;;;;;;-3.39;60.64;99354.59;4825123;29;20050;-85
2023/10/26 02:08:56;;;;;;;0.93;0.93;;;;;;;-3.42;60.64;99352.25;4809796;29;20514;-84
2023/10/26 02:11:23;;;;;;;0.93;0.93;;;;;;;-3.43;60.83;99358.50;4841693;29;20054;-83
2023/10/26 02:13:51;;;;;;;0.90;0.90;;;;;;;-3.45;60.65;99358.63;4841191;29;20499;-84
2023/10/26 02:16:20;;;;;;;0.98;0.98;;;;;;;-3.52;60.44;99354.91;4824741;29;20085;-82
2023/10/26 02:18:48;;;;;;;0.88;0.88;;;;;;;-3.55;60.73;99342.84;4824333;29;20054;-83
2023/10/26 02:21:15;;;;;;;0.80;0.80;;;;;;;-3.58;60.74;99353.69;4840897;29;20499;-83
2023/10/26 02:23:44;;;;;;;0.90;0.90;;;;;;;-3.57;60.87;99355.38;4824678;29;20054;-82
2023/10/26 02:26:11;;;;;;;0.90;0.90;;;;;;;-3.56;60.64;99348.28;4841020;29;20057;-83
2023/10/26 02:28:38;;;;;;;0.90;0.90;;;;;;;-3.56;60.62;99349.13;4824884;29;20053;-82
2023/10/26 02:31:05;;;;;;;0.88;0.88;;;;;;;-3.59;60.89;99354.69;4824308;29;20068;-83
2023/10/26 02:33:32;;;;;;;0.80;0.80;;;;;;;-3.61;61.13;99350.53;4809542;29;20049;-83
2023/10/26 02:35:59;;;;;;;1.00;1.00;;;;;;;-3.62;61.01;99348.84;4840362;29;20433;-84
2023/10/26 02:38:26;;;;;;;0.68;0.68;;;;;;;-3.68;60.95;99350.28;4840743;29;20213;-82
2023/10/26 02:40:53;;;;;;;0.82;0.82;;;;;;;-3.67;61.29;99359.88;4841143;29;20136;-82
2023/10/26 02:43:21;;;;;;;0.95;0.95;;;;;;;-3.68;61.28;99352.09;4840378;29;20062;-82
2023/10/26 02:45:48;;;;;;;0.70;0.70;;;;;;;-3.63;61.24;99350.66;4840622;29;20045;-83
2023/10/26 02:48:15;;;;;;;0.77;0.77;;;;;;;-3.61;61.39;99353.19;4824756;29;20049;-82
2023/10/26 02:50:42;;;;;;;0.90;0.90;;;;;;;-3.58;61.33;99348.44;4840447;29;20050;-84
2023/10/26 02:53:12;;;;;;;1.10;1.10;;;;;;;-3.62;61.43;99346.22;4809922;29;20061;-84
2023/10/26 02:55:39;;;;;;;1.00;1.00;;;;;;;-3.65;61.25;99344.69;4840587;29;20054;-84
2023/10/26 02:58:06;;;;;;;0.90;0.90;;;;;;;-3.62;61.19;99352.34;4823841;29;20055;-82
2023/10/26 03:00:34;;;;;;;0.88;0.88;;;;;;;-3.62;61.25;99333.88;4840539;29;20141;-84
2023/10/26 03:03:01;;;;;;;1.10;1.10;;;;;;;-3.66;61.26;99350.97;4840073;29;20058;-83
2023/10/26 03:05:29;;;;;;;0.88;0.88;;;;;;;-3.66;61.14;99347.50;4840780;29;20054;-84
2023/10/26 03:07:56;;;;;;;1.00;1.00;;;;;;;-3.67;61.35;99344.03;4840686;29;20054;-83
2023/10/26 03:10:24;;;;;;;0.90;0.90;;;;;;;-3.70;61.15;99344.31;4840590;29;20054;-82
2023/10/26 03:12:52;;;;;;;0.88;0.88;;;;;;;-3.72;61.02;99346.28;4840088;29;20058;-83
2023/10/26 03:15:19;;;;;;;0.98;0.98;;;;;;;-3.78;61.53;99323.09;4824100;29;20125;-83
2023/10/26 03:17:47;;;;;;;1.10;1.10;;;;;;;-3.75;61.61;99338.63;4840075;29;20572;-85
2023/10/26 03:20:14;;;;;;;0.80;0.80;;;;;;;-3.79;61.80;99324.09;4824005;29;20056;-84
2023/10/26 03:22:46;;;;;;;0.70;0.70;;;;;;;-3.73;61.49;99326.97;4823927;29;20058;-84
2023/10/26 03:25:14;;;;;;;1.00;1.00;;;;;;;-3.73;61.23;99326.97;4840889;29;20064;-85
2023/10/26 03:27:41;;;;;;;0.90;0.90;;;;;;;-3.76;61.31;99321.97;4840708;29;20114;-85
2023/10/26 03:30:10;;;;;;;0.90;0.90;;;;;;;-3.80;61.08;99310.09;4824048;29;20091;-84
2023/10/26 03:32:37;;;;;;;0.80;0.80;;;;;;;-3.83;61.07;99326.16;4840882;29;20057;-84
2023/10/26 03:35:05;;;;;;;0.90;0.90;;;;;;;-3.86;61.22;99320.38;4824030;29;20584;-86
2023/10/26 03:37:32;;;;;;;0.90;0.90;;;;;;;-3.81;61.34;99326.03;4840727;29;20054;-85
2023/10/26 03:39:59;;;;;;;0.90;0.90;;;;;;;-3.78;61.31;99317.84;4839923;29;20050;-85
2023/10/26 03:42:27;;;;;;;0.90;0.90;;;;;;;-3.83;61.11;99327.97;4823683;29;20111;-84
2023/10/26 03:44:55;;;;;;;0.80;0.80;;;;;;;-3.84;61.19;99321.06;4823664;29;20050;-83
2023/10/26 03:47:22;;;;;;;1.00;1.00;;;;;;;-3.83;61.31;99322.72;4840908;29;20049;-82
2023/10/26 03:49:55;;;;;;;1.00;1.00;;;;;;;-3.90;61.49;99326.88;4827325;29;20077;-85
2023/10/26 03:52:22;;;;;;;1.02;1.02;;;;;;;-3.93;61.68;99317.47;4826978;29;20429;-86
2023/10/26 03:54:50;;;;;;;0.90;0.90;;;;;;;-3.92;61.84;99319.16;4827169;29;20451;-83
2023/10/26 03:57:17;;;;;;;0.90;0.90;;;;;;;-3.95;62.00;99309.72;4844441;29;20153;-86
2023/10/26 03:59:44;;;;;;;0.57;0.57;;;;;;;-3.88;62.09;99330.22;4844086;29;20080;-82
2023/10/26 04:02:11;;;;;;;0.90;0.90;;;;;;;-3.85;61.93;99314.09;4843685;29;20050;-82
2023/10/26 04:04:39;;;;;;;0.90;0.90;;;;;;;-3.91;62.09;99318.16;4826855;29;20106;-82
2023/10/26 04:07:07;;;;;;;0.70;0.70;;;;;;;-3.83;62.00;99315.63;4842878;29;20058;-83
2023/10/26 04:09:35;;;;;;;0.90;0.90;;;;;;;-3.81;61.88;99316.31;4843851;29;20058;-85
2023/10/26 04:12:02;;;;;;;0.80;0.80;;;;;;;-3.78;61.78;99309.91;4811817;29;20426;-84
2023/10/26 04:14:31;;;;;;;1.00;1.00;;;;;;;-3.81;61.81;99316.31;4812221;29;20075;-91
2023/10/26 04:16:58;;;;;;;1.08;1.08;;;;;;;-3.82;61.99;99305.91;4811588;29;20061;-84
2023/10/26 04:19:26;;;;;;;0.90;0.90;;;;;;;-3.80;61.73;99301.31;4842805;29;20053;-82
2023/10/26 04:21:53;;;;;;;0.93;0.93;;;;;;;-3.83;61.68;99305.06;4842644;29;20064;-85
2023/10/26 04:24:20;;;;;;;1.02;1.02;;;;;;;-3.79;61.65;99305.63;4842329;29;20078;-84
2023/10/26 04:26:47;;;;;;;0.98;0.98;;;;;;;-3.80;61.82;99307.44;4825950;29;20054;-83
2023/10/26 04:29:14;;;;;;;0.82;0.82;;;;;;;-3.79;61.54;99303.00;4826566;29;20076;-84
2023/10/26 04:31:41;;;;;;;1.00;1.00;;;;;;;-3.84;61.83;99303.41;4843173;29;20050;-84
2023/10/26 04:34:08;;;;;;;0.95;0.95;;;;;;;-3.89;61.74;99304.84;4842389;29;20132;-84
2023/10/26 04:36:35;;;;;;;0.95;0.95;;;;;;;-3.90;62.05;99300.53;4842681;29;20054;-83
2023/10/26 04:39:04;;;;;;;0.80;0.80;;;;;;;-3.85;62.01;99311.47;4842380;29;20467;-83
2023/10/26 04:41:31;;;;;;;0.77;0.77;;;;;;;-3.81;62.22;99316.31;4843407;29;20081;-84
2023/10/26 04:43:59;;;;;;;0.90;0.90;;;;;;;-3.81;62.41;99299.66;4842348;29;20071;-84
2023/10/26 04:46:26;;;;;;;0.80;0.80;;;;;;;-3.78;62.38;99304.63;4842644;29;20058;-85
2023/10/26 04:48:53;;;;;;;0.80;0.80;;;;;;;-3.81;62.38;99300.50;4842269;29;20517;-85
2023/10/26 04:51:20;;;;;;;0.98;0.98;;;;;;;-3.80;62.30;99301.31;4825867;29;20050;-83
2023/10/26 04:53:49;;;;;;;0.93;0.93;;;;;;;-3.74;62.35;99303.38;4842126;29;20130;-84
2023/10/26 04:56:17;;;;;;;0.80;0.80;;;;;;;-3.74;62.51;99298.94;4842388;29;20521;-84
2023/10/26 04:58:48;;;;;;;0.88;0.88;;;;;;;-3.66;62.11;99298.19;4825924;29;20471;-85
2023/10/26 05:01:18;;;;;;;1.20;1.20;;;;;;;-3.62;61.99;99299.59;4812051;29;20066;-82
2023/10/26 05:03:45;;;;;;;0.80;0.80;;;;;;;-3.63;62.14;99295.25;4825890;29;20140;-84
2023/10/26 05:06:13;;;;;;;0.70;0.70;;;;;;;-3.55;61.77;99298.00;4825575;29;20102;-84
2023/10/26 05:08:41;;;;;;;0.77;0.77;;;;;;;-3.60;61.99;99281.78;4842042;29;20533;-84
2023/10/26 05:11:08;;;;;;;0.82;0.82;;;;;;;-3.55;61.83;99283.97;4825537;29;20084;-82
2023/10/26 05:13:35;;;;;;;0.90;0.90;;;;;;;-3.52;61.84;99288.97;4825536;29;20045;-83
2023/10/26 05:16:03;;;;;;;1.20;1.20;;;;;;;-3.49;61.87;99283.41;4841764;29;20054;-84
2023/10/26 05:18:45;;;;;;;1.00;1.00;;;;;;;-3.67;61.43;99256.97;4841825;29;20068;-84
2023/10/26 05:21:12;;;;;;;0.90;0.90;;;;;;;-3.53;61.62;99274.13;4810787;29;20107;-84
2023/10/26 05:23:39;;;;;;;0.90;0.90;;;;;;;-3.55;61.73;99273.44;4825741;29;20106;-83
2023/10/26 05:26:10;;;;;;;0.95;0.95;;;;;;;-3.63;61.68;99260.97;4810563;29;20503;-83
2023/10/26 05:28:37;;;;;;;1.00;1.00;;;;;;;-3.61;61.33;99263.47;4842104;29;20058;-82
2023/10/26 05:31:05;;;;;;;0.98;0.98;;;;;;;-3.48;61.60;99279.78;4842868;29;20141;-83
2023/10/26 05:33:32;;;;;;;0.80;0.80;;;;;;;-3.46;61.53;99271.72;4844611;29;20133;-83
2023/10/26 05:36:00;;;;;;;0.90;0.90;;;;;;;-3.47;61.60;99272.69;4843399;29;20064;-85
2023/10/26 05:38:30;;;;;;;0.82;0.82;;;;;;;-3.52;61.61;99268.69;4810246;29;20057;-83
2023/10/26 05:40:58;;;;;;;0.77;0.77;;;;;;;-3.44;61.21;99277.66;4833586;29;20054;-82
2023/10/26 05:43:25;;;;;;;0.90;0.90;;;;;;;-3.42;61.39;99263.34;4797006;29;20055;-84
2023/10/26 05:45:53;;;;;;;0.90;0.90;;;;;;;-3.45;60.96;99276.84;4779554;29;20050;-83
2023/10/26 05:48:23;;;;;;;0.93;0.93;;;;;;;-3.43;61.10;99266.16;4799830;29;20074;-84
2023/10/26 05:50:50;;;;;;;1.08;1.08;;;;;;;-3.41;61.30;99278.22;4812730;29;20141;-82
2023/10/26 05:53:17;;;;;;;0.90;0.90;;;;;;;-3.36;61.14;99275.97;4801329;29;20058;-83
2023/10/26 05:55:55;;;;;;;0.70;0.70;;;;;;;-3.29;61.10;99273.56;4820308;29;20055;-83
2023/10/26 05:58:25;;;;;;;0.88;0.88;;;;;;;-3.24;61.04;99271.31;4802242;29;20050;-84
2023/10/26 06:00:52;;;;;;;1.05;1.05;;;;;;;-3.29;60.58;99257.72;4814670;29;20078;-85
2023/10/26 06:03:19;;;;;;;0.82;0.82;;;;;;;-3.30;60.65;99266.59;4818123;29;20490;-83
2023/10/26 06:05:49;;;;;;;0.98;0.98;;;;;;;-3.30;60.57;99258.69;4788937;29;20107;-83
2023/10/26 06:08:18;;;;;;;1.00;1.00;;;;;;;-3.20;60.50;99261.25;4817426;29;20061;-86
2023/10/26 06:10:45;;;;;;;1.05;1.05;;;;;;;-3.14;60.70;99258.00;4790051;29;20046;-84
2023/10/26 06:13:13;;;;;;;0.90;0.90;;;;;;;-3.17;60.63;99245.94;4804595;29;20103;-85
2023/10/26 06:15:43;;;;;;;1.02;1.02;;;;;;;-3.06;60.31;99252.84;4806857;29;20050;-91
2023/10/26 06:18:12;;;;;;;0.90;0.90;;;;;;;-3.01;60.26;99258.50;4483941;29;9999658;-84
2023/10/26 06:20:40;;;;;;;1.00;1.00;;;;;;;-2.95;60.31;99271.06;4818489;29;20501;-82
2023/10/26 06:23:07;;;;;;;0.90;0.90;;;;;;;-2.89;60.20;99262.53;4821300;29;20070;-84
2023/10/26 06:25:36;;;;;;;0.90;0.90;;;;;;;-2.92;59.86;99262.00;4786654;29;20057;-82
2023/10/26 06:28:03;;;;;;;0.85;0.85;;;;;;;-2.79;60.07;99266.91;4789475;29;20065;-82
2023/10/26 06:30:33;;;;;;;0.93;0.93;;;;;;;-2.68;59.95;99251.66;4805292;29;20066;-85
2023/10/26 06:33:04;;;;;;;0.80;0.80;;;;;;;-2.83;59.58;99245.28;4787537;29;20050;-85
2023/10/26 06:35:32;;;;;;;0.80;0.80;;;;;;;-2.78;59.82;99260.66;4798472;29;20165;-85
2023/10/26 06:37:59;;;;;;;0.95;0.95;;;;;;;-2.83;59.94;99259.31;4817910;29;20103;-86
2023/10/26 06:40:26;;;;;;;1.02;1.02;;;;;;;-2.86;59.81;99254.31;4803374;29;20066;-83
2023/10/26 06:42:53;;;;;;;0.80;0.80;;;;;;;-2.85;59.68;99249.88;4823302;29;20060;-84
2023/10/26 06:45:21;;;;;;;0.90;0.90;;;;;;;-2.71;59.72;99261.69;4840296;29;20467;-85
2023/10/26 06:47:48;;;;;;;1.10;1.10;;;;;;;-2.69;59.18;99265.00;4825004;29;20062;-85
2023/10/26 06:50:15;;;;;;;1.15;1.15;;;;;;;-2.65;59.56;99254.00;4840694;29;20054;-84
2023/10/26 06:52:42;;;;;;;1.10;1.10;;;;;;;-2.67;59.08;99252.47;4841150;29;20097;-86
2023/10/26 06:55:15;;;;;;;1.00;1.00;;;;;;;-2.65;59.07;99254.00;4840395;29;20046;-86
2023/10/26 06:57:57;;;;;;;0.90;0.90;;;;;;;-2.67;58.85;99252.47;4840943;29;20054;-84
2023/10/26 07:00:24;;;;;;;0.82;0.82;;;;;;;-2.56;58.72;99259.31;4824627;29;20513;-84
2023/10/26 07:02:51;;;;;;;0.90;0.90;;;;;;;-2.42;58.64;99259.59;4840624;29;20049;-87
2023/10/26 07:05:18;;;;;;;0.82;0.82;;;;;;;-2.34;58.64;99258.81;4840722;29;20058;-85
2023/10/26 07:07:45;;;;;;;1.10;1.10;;;;;;;-2.35;58.41;99262.47;4794334;29;20569;-85
2023/10/26 07:10:16;;;;;;;0.80;0.80;;;;;;;-2.27;58.50;99273.09;4823467;29;20323;-84
2023/10/26 07:12:46;;;;;;;1.10;1.10;;;;;;;-2.40;57.99;99260.28;4824800;29;20549;-85
2023/10/26 07:15:13;;;;;;;1.27;1.20;;;;;;;-2.53;58.29;99227.28;4824063;29;20402;-85
2023/10/26 07:17:40;;;;;;;1.02;1.02;;;;;;;-2.68;58.44;99264.06;4824464;29;20578;-84
2023/10/26 07:20:08;;;;;;;1.00;1.00;;;;;;;-2.67;58.88;99258.59;4840439;29;20144;-85
2023/10/26 07:22:35;;;;;;;1.00;1.00;;;;;;;-2.58;58.83;99245.44;4843619;29;20061;-84
2023/10/26 07:25:03;;;;;;;0.95;0.95;;;;;;;-2.44;58.59;99252.81;4844135;29;20153;-86
2023/10/26 07:27:30;;;;;;;1.15;1.15;;;;;;;-2.46;58.75;99249.50;4812431;29;20056;-86
2023/10/26 07:30:00;;;;;;;0.80;0.80;;;;;;;-2.38;58.09;99252.22;4844023;29;20076;-86
2023/10/26 07:32:35;;;;;;;1.05;1.05;;;;;;;-2.42;58.20;99256.13;4828031;29;20467;-85
2023/10/26 07:35:03;;;;;;;1.00;1.00;;;;;;;-2.45;58.07;99241.41;4827370;29;20424;-85
2023/10/26 07:37:32;;;;;;;1.05;1.05;;;;;;;-2.37;58.00;99242.47;4827797;29;20061;-84
2023/10/26 07:39:59;;;;;;;0.95;0.95;;;;;;;-2.31;58.10;99240.00;4843611;29;20149;-86
2023/10/26 07:42:47;;;;;;;1.00;1.00;;;;;;;-2.35;57.53;99241.31;4827411;29;20094;-84
2023/10/26 07:45:15;;;;;;;1.00;1.00;;;;;;;-2.37;57.75;99238.00;4843263;29;20114;-86
2023/10/26 07:47:42;;;;;;;1.02;1.02;;;;;;;-2.24;57.65;99242.84;4843831;29;20407;-84
2023/10/26 07:50:09;;;;;;;1.10;1.10;;;;;;;-2.09;57.34;99224.59;4843328;29;20057;-85
2023/10/26 07:52:36;;;;;;;1.30;1.20;;;;;;;-1.99;57.22;99230.59;4843635;29;20117;-85
2023/10/26 07:55:04;;;;;;;1.00;1.00;;;;;;;-1.81;57.06;99241.09;4843148;29;20107;-85
2023/10/26 07:57:31;;;;;;;0.88;0.88;;;;;;;-1.82;56.74;99236.78;4826898;29;20149;-85
2023/10/26 07:59:58;;;;;;;1.10;1.10;;;;;;;-1.77;56.75;99229.22;4822279;29;20063;-84
2023/10/26 08:02:40;;;;;;;1.10;1.10;;;;;;;-1.87;56.55;99223.22;4824862;29;20058;-84
2023/10/26 08:05:09;;;;;;;1.13;1.13;;;;;;;-1.81;56.21;99238.44;4799216;29;20093;-83
2023/10/26 08:07:37;;;;;;;1.00;1.00;;;;;;;-1.84;56.43;99222.88;4813804;29;20123;-84
2023/10/26 08:10:04;;;;;;;1.40;1.30;;;;;;;-1.54;56.17;99232.91;4800377;29;20141;-87
2023/10/26 08:12:31;;;;;;;1.20;1.20;;;;;;;-1.49;55.94;99227.16;4806216;29;20518;-82
2023/10/26 08:14:58;;;;;;;1.40;1.30;;;;;;;-0.73;54.89;99241.13;4814955;29;20141;-85
2023/10/26 08:17:46;;;;;;;1.40;1.30;;;;;;;0.18;53.27;99222.22;4806667;29;20142;-85
2023/10/26 08:20:14;;;;;;;0.95;0.95;;;;;;;0.85;51.65;99221.66;4790280;29;20051;-86
2023/10/26 08:22:41;;;;;;;0.95;0.95;;;;;;;0.60;51.16;99220.97;4818283;29;20062;-84
2023/10/26 08:25:08;;;;;;;1.10;1.10;;;;;;;0.48;51.49;99222.41;4819857;29;20557;-82
2023/10/26 08:27:35;;;;;;;1.30;1.20;;;;;;;1.47;49.97;99227.84;4817637;29;20510;-82
2023/10/26 08:30:03;;;;;;;1.13;1.13;;;;;;;1.99;48.57;99218.16;4802963;29;20058;-83
2023/10/26 08:32:32;;;;;;;1.40;1.30;;;;;;;1.69;48.37;99237.56;4786993;29;20054;-83
2023/10/26 08:35:00;;;;;;;1.40;1.30;;;;;;;1.58;47.96;99222.06;4822663;29;20050;-85
2023/10/26 08:37:30;;;;;;;1.00;1.00;;;;;;;1.16;49.04;99226.06;4804396;29;20137;-84
2023/10/26 08:39:58;;;;;;;1.40;1.30;;;;;;;0.75;49.83;99221.06;4801647;29;20056;-84
2023/10/26 08:42:25;;;;;;;1.42;1.33;;;;;;;1.13;49.55;99221.13;4819198;29;20050;-82
2023/10/26 08:44:54;;;;;;;1.30;1.20;;;;;;;1.85;47.81;99225.97;4788491;29;20066;-82
2023/10/26 08:47:22;;;;;;;1.27;1.20;;;;;;;1.73;48.10;99212.28;4803468;29;20054;-82
2023/10/26 08:49:52;;;;;;;1.50;1.40;;;;;;;2.69;46.59;99198.13;4806098;29;20106;-84
2023/10/26 08:52:43;;;;;;;1.25;1.17;;;;;;;2.92;45.57;99190.75;4804312;29;20054;-84
2023/10/26 08:55:10;;;;;;;1.38;1.27;;;;;;;2.81;45.73;99209.91;4821227;29;20072;-85
2023/10/26 08:57:48;;;;;;;1.40;1.30;;;;;;;3.30;44.70;99209.16;4818178;29;20115;-83
2023/10/26 09:00:16;;;;;;;1.30;1.20;;;;;;;3.64;44.22;99204.88;4819893;29;20069;-84
2023/10/26 09:02:44;;;;;;;1.30;1.20;;;;;;;3.15;44.17;99206.56;4818183;29;20050;-82
2023/10/26 09:05:12;;;;;;;1.00;1.00;;;;;;;2.77;44.95;99206.00;4823550;29;20058;-83
2023/10/26 09:07:41;;;;;;;1.27;1.20;;;;;;;3.22;44.94;99210.13;4817102;29;20054;-84
2023/10/26 09:10:09;;;;;;;1.10;1.10;;;;;;;4.00;43.70;99198.53;4821282;29;20546;-84
2023/10/26 09:12:39;;;;;;;1.38;1.27;;;;;;;4.73;42.00;99191.63;4805641;29;20050;-84
2023/10/26 09:15:07;;;;;;;1.23;1.20;;;;;;;4.43;42.08;99176.94;4800697;29;20553;-81
2023/10/26 09:17:34;;;;;;;1.30;1.20;;;;;;;4.00;42.80;99190.50;4821474;29;20054;-82
2023/10/26 09:20:21;;;;;;;1.10;1.10;;;;;;;3.30;43.66;99182.47;4821064;29;20083;-84
2023/10/26 09:22:49;;;;;;;1.08;1.08;;;;;;;2.05;45.43;99190.78;4820945;29;20073;-83
2023/10/26 09:25:17;;;;;;;1.10;1.10;;;;;;;1.18;47.25;99167.44;4804428;29;20050;-81
2023/10/26 09:27:46;;;;;;;1.23;1.20;;;;;;;0.96;48.23;99193.88;4818554;29;20058;-84
2023/10/26 09:30:28;;;;;;;1.00;1.00;;;;;;;1.06;48.44;99177.66;4820279;29;20137;-81
2023/10/26 09:32:58;;;;;;;1.00;1.00;;;;;;;0.72;49.03;99178.91;4760450;29;20059;-84
2023/10/26 09:35:33;;;;;;;1.10;1.10;;;;;;;0.49;49.45;99167.47;4813119;29;20086;-83
2023/10/26 09:38:00;;;;;;;1.15;1.15;;;;;;;0.20;49.72;99171.59;4813658;29;20401;-82
2023/10/26 09:40:28;;;;;;;1.10;1.10;;;;;;;-0.02;50.36;99181.97;4801604;29;20062;-83
2023/10/26 09:42:58;;;;;;;1.10;1.10;;;;;;;0.06;50.62;99173.16;4486011;29;9999674;-81
2023/10/26 09:45:26;;;;;;;1.30;1.20;;;;;;;0.14;50.46;99167.81;4816969;29;20140;-84
2023/10/26 09:47:53;;;;;;;1.15;1.15;;;;;;;0.35;49.68;99153.91;4814332;29;20530;-83
2023/10/26 09:50:21;;;;;;;1.45;1.35;;;;;;;1.37;48.52;99166.06;4800247;29;20369;-82
2023/10/26 09:52:48;;;;;;;1.60;1.50;;;;;;;3.12;45.64;99158.13;4814457;29;20082;-84
2023/10/26 09:55:16;;;;;;;1.55;1.45;;;;;;;4.55;42.73;99157.44;4808805;29;20082;-83
2023/10/26 09:57:52;;;;;;;1.60;1.50;;;;;;;4.80;41.42;99124.81;4802102;29;20157;-84
2023/10/26 10:00:29;;;;;;;1.52;1.42;;;;;;;5.29;40.81;99123.59;4802042;29;20065;-83
2023/10/26 10:03:17;;;;;;;1.50;1.40;;;;;;;5.50;40.67;99140.44;4808798;29;20058;-86
2023/10/26 10:05:47;;;;;;;1.52;1.42;;;;;;;5.69;39.70;99130.72;4800236;29;20119;-82
2023/10/26 10:08:53;;;;;;;1.60;1.50;;;;;;;6.17;39.51;99141.91;4817166;29;20073;-83
2023/10/26 10:11:20;;;;;;;1.40;1.30;;;;;;;6.64;38.74;99128.28;4818134;29;20050;-84
2023/10/26 10:13:47;;;;;;;1.02;1.02;;;;;;;5.92;39.16;99125.69;4812789;29;20038;-85
2023/10/26 10:16:33;;;;;;;1.35;1.25;;;;;;;5.03;40.39;99126.25;4841918;29;20039;-86
2023/10/26 10:19:20;;;;;;;1.25;1.20;;;;;;;4.33;40.76;99139.94;4824220;29;20087;-86
2023/10/26 10:21:48;;;;;;;1.48;1.38;;;;;;;4.01;41.71;99133.44;4805169;29;20386;-84
2023/10/26 10:24:42;;;;;;;1.20;1.20;;;;;;;4.33;41.04;99138.06;4810302;29;20427;-84
2023/10/26 10:27:11;;;;;;;1.00;1.00;;;;;;;3.29;42.41;99116.78;4816035;29;20107;-83
2023/10/26 10:29:39;;;;;;;1.10;1.10;;;;;;;2.23;44.48;99127.34;4802632;29;20107;-84
2023/10/26 10:32:06;;;;;;;1.00;1.00;;;;;;;1.65;45.70;99145.84;4803060;29;20050;-82
2023/10/26 10:34:42;;;;;;;1.02;1.02;;;;;;;1.16;46.66;99132.22;4802975;29;20050;-83
2023/10/26 10:37:21;;;;;;;0.90;0.90;;;;;;;1.17;47.09;99129.38;4816327;29;20050;-83
2023/10/26 10:40:11;;;;;;;1.10;1.10;;;;;;;1.34;47.08;99134.53;4818984;29;20553;-83
2023/10/26 10:42:50;;;;;;;1.20;1.20;;;;;;;1.76;46.28;99128.59;4819540;29;20065;-82
2023/10/26 10:45:18;;;;;;;1.50;1.40;;;;;;;2.38;45.17;99121.94;4823195;29;20083;-82
2023/10/26 10:47:49;;;;;;;1.40;1.30;;;;;;;3.00;44.25;99120.47;4826539;29;20359;-82
2023/10/26 10:50:20;;;;;;;1.30;1.20;;;;;;;3.01;43.60;99125.63;4805516;29;20054;-84
2023/10/26 10:52:48;;;;;;;1.08;1.08;;;;;;;3.06;43.96;99121.53;4818738;29;20058;-82
2023/10/26 10:55:20;;;;;;;1.10;1.10;;;;;;;2.75;44.58;99136.03;4818966;29;20111;-83
2023/10/26 10:57:53;;;;;;;1.10;1.10;;;;;;;2.12;45.60;99136.59;4818654;29;20074;-83
2023/10/26 11:00:22;;;;;;;1.00;1.00;;;;;;;1.77;46.67;99121.41;4825134;29;20119;-83
2023/10/26 11:02:52;;;;;;;1.00;1.00;;;;;;;1.47;47.41;99122.25;4822835;29;20050;-83
2023/10/26 11:05:19;;;;;;;1.00;1.00;;;;;;;1.19;47.77;99127.38;4793023;29;20077;-83
2023/10/26 11:07:47;;;;;;;1.30;1.20;;;;;;;1.09;47.92;99118.84;4473307;29;9999651;-81
2023/10/26 11:10:15;;;;;;;1.02;1.02;;;;;;;1.06;48.12;99109.41;4783462;29;20512;-83
2023/10/26 11:12:50;;;;;;;1.00;1.00;;;;;;;1.06;47.80;99120.03;4804855;29;20085;-82
2023/10/26 11:15:17;;;;;;;1.10;1.10;;;;;;;0.93;47.98;99106.50;4824880;29;20539;-87
2023/10/26 11:17:47;;;;;;;1.38;1.27;;;;;;;0.90;48.04;99111.38;4824628;29;20046;-83
2023/10/26 11:20:52;;;;;;;1.00;1.00;;;;;;;0.72;48.33;99101.88;4779278;29;20065;-84
2023/10/26 11:23:22;;;;;;;1.17;1.15;;;;;;;0.65;48.53;99111.56;4802973;29;20063;-83
2023/10/26 11:25:50;;;;;;;1.02;1.02;;;;;;;0.61;48.73;99095.16;4788821;29;20066;-83
2023/10/26 11:28:33;;;;;;;1.23;1.20;;;;;;;0.51;49.08;99094.56;4802837;29;20055;-84
2023/10/26 11:31:00;;;;;;;1.00;1.00;;;;;;;0.37;49.71;99098.81;4799480;29;20142;-84
2023/10/26 11:33:34;;;;;;;1.05;1.05;;;;;;;0.40;49.76;99094.97;4796919;29;20119;-83
2023/10/26 11:36:08;;;;;;;1.10;1.10;;;;;;;0.47;49.80;99087.13;4798308;29;20440;-83
2023/10/26 11:38:36;;;;;;;0.90;0.90;;;;;;;0.55;50.13;99081.75;4802767;29;20461;-84
2023/10/26 11:41:03;;;;;;;1.10;1.10;;;;;;;0.52;50.32;99093.56;4804647;29;20058;-82
2023/10/26 11:43:33;;;;;;;0.90;0.90;;;;;;;0.51;50.46;99080.47;4806613;29;20471;-83
2023/10/26 11:46:02;;;;;;;1.20;1.20;;;;;;;0.45;50.32;99084.66;4762008;29;20161;-83